IIA weather

Inishmaan Aerodrome
Inis MeƔin, County Galway, Ireland

Public forecast

Using degrees Celsius for public forecast. Weather courtesy of forecast.io.

METAR (pilot weather report)

Report is more than 6 hours old.

Closest report is Galway Airport, 25.7 nm (47.7 km) ENE. Retrieved 2013/11/04 14:00 UTC (6 years ago):

EICM 041400Z 19005KT 9999 FEW040 09/08 Q0997

TAF (pilot weather forecast)

Closest forecast is Shannon Airport, 33.1 nm (61.3 km) SE. Retrieved 2019/09/21 12:09 UTC (3 minutes ago):

TAF TAF EINN 211100Z 2112/2212 13017KT 9999 FEW018 BKN022 TEMPO 2112/2119 14018G28KT TEMPO 2112/2118 -SHRA BKN010 SCT018CB BECMG 2119/2121 14010KT TEMPO 2119/2124 5000 RA BKN007 SCT018CB BECMG 2200/2202 14005KT TEMPO 2202/2206 4000 -DZ BR BKN006 BECMG 2204/2206 21007KT BECMG 2209/2212 28010KT TEMPO 2210/2212 -SHRA SCT012 SCT018CB